sensor_id;sensor_type;location;lat;lon;timestamp;P1;durP1;ratioP1;P2;durP2;ratioP2
74908;SDS011;63468;52.058;4.824;2023-07-31T00:00:04;35.50;;;31.63;;
74908;SDS011;63468;52.058;4.824;2023-07-31T00:02:30;40.58;;;33.60;;
74908;SDS011;63468;52.058;4.824;2023-07-31T00:04:55;36.60;;;32.95;;
74908;SDS011;63468;52.058;4.824;2023-07-31T00:07:20;37.60;;;32.40;;
74908;SDS011;63468;52.058;4.824;2023-07-31T00:09:46;37.75;;;32.97;;
74908;SDS011;63468;52.058;4.824;2023-07-31T00:12:11;36.92;;;32.75;;
74908;SDS011;63468;52.058;4.824;2023-07-31T00:14:37;43.78;;;34.38;;
74908;SDS011;63468;52.058;4.824;2023-07-31T00:17:02;36.25;;;32.40;;
74908;SDS011;63468;52.058;4.824;2023-07-31T00:19:27;38.83;;;31.88;;
74908;SDS011;63468;52.058;4.824;2023-07-31T00:21:53;37.35;;;32.65;;
74908;SDS011;63468;52.058;4.824;2023-07-31T00:24:18;34.47;;;30.77;;
74908;SDS011;63468;52.058;4.824;2023-07-31T00:26:43;34.65;;;31.25;;
74908;SDS011;63468;52.058;4.824;2023-07-31T00:29:08;33.63;;;30.52;;
74908;SDS011;63468;52.058;4.824;2023-07-31T00:31:34;35.67;;;31.60;;
74908;SDS011;63468;52.058;4.824;2023-07-31T00:33:59;35.85;;;31.67;;
74908;SDS011;63468;52.058;4.824;2023-07-31T00:36:24;37.08;;;33.30;;
74908;SDS011;63468;52.058;4.824;2023-07-31T00:38:50;35.97;;;32.20;;
74908;SDS011;63468;52.058;4.824;2023-07-31T00:41:15;35.72;;;32.17;;
74908;SDS011;63468;52.058;4.824;2023-07-31T00:43:40;37.05;;;33.38;;
74908;SDS011;63468;52.058;4.824;2023-07-31T00:46:06;40.78;;;31.90;;
74908;SDS011;63468;52.058;4.824;2023-07-31T00:48:31;37.03;;;32.47;;
74908;SDS011;63468;52.058;4.824;2023-07-31T00:50:57;39.65;;;31.80;;
74908;SDS011;63468;52.058;4.824;2023-07-31T00:53:23;45.60;;;33.67;;
74908;SDS011;63468;52.058;4.824;2023-07-31T00:55:49;36.50;;;32.90;;
74908;SDS011;63468;52.058;4.824;2023-07-31T00:58:15;42.38;;;33.60;;
74908;SDS011;63468;52.058;4.824;2023-07-31T01:00:40;38.75;;;32.17;;
74908;SDS011;63468;52.058;4.824;2023-07-31T01:03:05;36.10;;;32.42;;
74908;SDS011;63468;52.058;4.824;2023-07-31T01:10:56;36.13;;;32.43;;
74908;SDS011;63468;52.058;4.824;2023-07-31T01:13:40;37.75;;;33.72;;
74908;SDS011;63468;52.058;4.824;2023-07-31T01:16:07;41.65;;;33.95;;
74908;SDS011;63468;52.058;4.824;2023-07-31T01:18:32;44.40;;;32.58;;
74908;SDS011;63468;52.058;4.824;2023-07-31T01:21:03;37.35;;;33.15;;
74908;SDS011;63468;52.058;4.824;2023-07-31T01:26:47;34.63;;;31.33;;
74908;SDS011;63468;52.058;4.824;2023-07-31T01:31:46;33.42;;;30.15;;
74908;SDS011;63468;52.058;4.824;2023-07-31T01:34:13;33.25;;;30.20;;
74908;SDS011;63468;52.058;4.824;2023-07-31T01:36:39;33.83;;;30.88;;
74908;SDS011;63468;52.058;4.824;2023-07-31T01:39:04;36.50;;;32.65;;
74908;SDS011;63468;52.058;4.824;2023-07-31T01:41:29;33.63;;;31.02;;
74908;SDS011;63468;52.058;4.824;2023-07-31T01:43:55;35.35;;;31.90;;
74908;SDS011;63468;52.058;4.824;2023-07-31T01:46:20;36.25;;;32.20;;
74908;SDS011;63468;52.058;4.824;2023-07-31T01:48:45;37.15;;;33.45;;
74908;SDS011;63468;52.058;4.824;2023-07-31T01:51:11;36.08;;;32.42;;
74908;SDS011;63468;52.058;4.824;2023-07-31T01:53:36;37.45;;;33.00;;
74908;SDS011;63468;52.058;4.824;2023-07-31T01:56:01;36.53;;;33.17;;
74908;SDS011;63468;52.058;4.824;2023-07-31T01:58:27;38.97;;;32.72;;
74908;SDS011;63468;52.058;4.824;2023-07-31T02:00:52;45.40;;;34.50;;
74908;SDS011;63468;52.058;4.824;2023-07-31T02:03:17;37.78;;;33.55;;
74908;SDS011;63468;52.058;4.824;2023-07-31T02:05:46;37.45;;;33.60;;
74908;SDS011;63468;52.058;4.824;2023-07-31T02:08:12;36.30;;;32.42;;
74908;SDS011;63468;52.058;4.824;2023-07-31T02:10:38;37.03;;;32.90;;
74908;SDS011;63468;52.058;4.824;2023-07-31T02:13:03;41.17;;;32.30;;
74908;SDS011;63468;52.058;4.824;2023-07-31T02:15:29;37.42;;;32.75;;
74908;SDS011;63468;52.058;4.824;2023-07-31T02:17:55;36.58;;;32.35;;
74908;SDS011;63468;52.058;4.824;2023-07-31T02:20:20;35.78;;;32.33;;
74908;SDS011;63468;52.058;4.824;2023-07-31T02:22:45;37.83;;;30.38;;
74908;SDS011;63468;52.058;4.824;2023-07-31T02:25:11;35.08;;;31.65;;
74908;SDS011;63468;52.058;4.824;2023-07-31T02:27:36;34.33;;;30.95;;
74908;SDS011;63468;52.058;4.824;2023-07-31T02:30:01;34.92;;;31.48;;
74908;SDS011;63468;52.058;4.824;2023-07-31T02:32:27;34.00;;;30.40;;
74908;SDS011;63468;52.058;4.824;2023-07-31T02:34:52;34.35;;;30.33;;
74908;SDS011;63468;52.058;4.824;2023-07-31T02:37:18;33.63;;;30.13;;
74908;SDS011;63468;52.058;4.824;2023-07-31T02:39:43;32.97;;;29.48;;
74908;SDS011;63468;52.058;4.824;2023-07-31T02:42:08;38.83;;;31.15;;
74908;SDS011;63468;52.058;4.824;2023-07-31T02:44:34;42.70;;;30.75;;
74908;SDS011;63468;52.058;4.824;2023-07-31T02:46:59;33.45;;;30.00;;
74908;SDS011;63468;52.058;4.824;2023-07-31T02:49:24;31.55;;;28.15;;
74908;SDS011;63468;52.058;4.824;2023-07-31T02:51:50;33.60;;;30.02;;
74908;SDS011;63468;52.058;4.824;2023-07-31T02:54:15;30.83;;;27.25;;
74908;SDS011;63468;52.058;4.824;2023-07-31T02:56:40;30.27;;;27.25;;
74908;SDS011;63468;52.058;4.824;2023-07-31T02:59:05;29.40;;;26.30;;
74908;SDS011;63468;52.058;4.824;2023-07-31T03:01:31;28.38;;;25.67;;
74908;SDS011;63468;52.058;4.824;2023-07-31T03:03:56;30.98;;;27.65;;
74908;SDS011;63468;52.058;4.824;2023-07-31T03:06:22;28.48;;;24.40;;
74908;SDS011;63468;52.058;4.824;2023-07-31T03:08:47;27.63;;;24.73;;
74908;SDS011;63468;52.058;4.824;2023-07-31T03:11:12;45.40;;;27.30;;
74908;SDS011;63468;52.058;4.824;2023-07-31T03:13:38;31.40;;;25.55;;
74908;SDS011;63468;52.058;4.824;2023-07-31T03:16:03;27.75;;;24.83;;
74908;SDS011;63468;52.058;4.824;2023-07-31T03:18:28;26.00;;;23.60;;
74908;SDS011;63468;52.058;4.824;2023-07-31T03:20:54;28.10;;;24.10;;
74908;SDS011;63468;52.058;4.824;2023-07-31T03:23:19;28.25;;;24.15;;
74908;SDS011;63468;52.058;4.824;2023-07-31T03:28:26;26.60;;;24.00;;
74908;SDS011;63468;52.058;4.824;2023-07-31T03:30:51;25.10;;;22.70;;
74908;SDS011;63468;52.058;4.824;2023-07-31T03:33:17;28.42;;;24.83;;
74908;SDS011;63468;52.058;4.824;2023-07-31T03:35:42;27.48;;;24.83;;
74908;SDS011;63468;52.058;4.824;2023-07-31T03:38:07;26.30;;;23.58;;
74908;SDS011;63468;52.058;4.824;2023-07-31T03:40:33;28.75;;;25.67;;
74908;SDS011;63468;52.058;4.824;2023-07-31T03:42:58;29.23;;;26.48;;
74908;SDS011;63468;52.058;4.824;2023-07-31T03:45:24;28.98;;;25.90;;
74908;SDS011;63468;52.058;4.824;2023-07-31T03:47:49;30.38;;;27.25;;
74908;SDS011;63468;52.058;4.824;2023-07-31T03:50:14;29.73;;;26.98;;
74908;SDS011;63468;52.058;4.824;2023-07-31T03:52:40;31.23;;;27.48;;
74908;SDS011;63468;52.058;4.824;2023-07-31T03:55:06;30.67;;;27.50;;
74908;SDS011;63468;52.058;4.824;2023-07-31T03:57:31;31.92;;;28.73;;
74908;SDS011;63468;52.058;4.824;2023-07-31T03:59:57;32.35;;;28.00;;
74908;SDS011;63468;52.058;4.824;2023-07-31T04:02:23;32.53;;;29.58;;
74908;SDS011;63468;52.058;4.824;2023-07-31T04:04:48;32.67;;;29.83;;
74908;SDS011;63468;52.058;4.824;2023-07-31T04:07:13;34.22;;;30.98;;
74908;SDS011;63468;52.058;4.824;2023-07-31T04:09:39;32.10;;;29.58;;
74908;SDS011;63468;52.058;4.824;2023-07-31T04:12:04;33.08;;;30.45;;
74908;SDS011;63468;52.058;4.824;2023-07-31T04:14:30;33.83;;;31.13;;
74908;SDS011;63468;52.058;4.824;2023-07-31T04:16:55;35.65;;;32.53;;
74908;SDS011;63468;52.058;4.824;2023-07-31T04:19:20;36.17;;;33.00;;
74908;SDS011;63468;52.058;4.824;2023-07-31T04:21:46;35.35;;;32.25;;
74908;SDS011;63468;52.058;4.824;2023-07-31T04:24:11;35.95;;;32.78;;
74908;SDS011;63468;52.058;4.824;2023-07-31T04:26:36;36.45;;;33.38;;
74908;SDS011;63468;52.058;4.824;2023-07-31T04:29:01;36.67;;;33.53;;
74908;SDS011;63468;52.058;4.824;2023-07-31T04:31:27;36.00;;;32.63;;
74908;SDS011;63468;52.058;4.824;2023-07-31T04:33:52;36.15;;;32.67;;
74908;SDS011;63468;52.058;4.824;2023-07-31T04:36:18;35.70;;;32.55;;
74908;SDS011;63468;52.058;4.824;2023-07-31T04:38:43;35.90;;;32.25;;
74908;SDS011;63468;52.058;4.824;2023-07-31T04:41:08;34.15;;;31.05;;
74908;SDS011;63468;52.058;4.824;2023-07-31T04:43:34;32.30;;;29.55;;
74908;SDS011;63468;52.058;4.824;2023-07-31T04:45:59;33.38;;;30.25;;
74908;SDS011;63468;52.058;4.824;2023-07-31T04:48:24;34.10;;;31.25;;
74908;SDS011;63468;52.058;4.824;2023-07-31T04:50:50;34.45;;;31.40;;
74908;SDS011;63468;52.058;4.824;2023-07-31T04:53:15;33.03;;;29.83;;
74908;SDS011;63468;52.058;4.824;2023-07-31T04:55:40;33.03;;;29.85;;
74908;SDS011;63468;52.058;4.824;2023-07-31T04:58:06;32.85;;;30.08;;
74908;SDS011;63468;52.058;4.824;2023-07-31T05:00:31;32.28;;;29.70;;
74908;SDS011;63468;52.058;4.824;2023-07-31T05:02:56;32.75;;;29.60;;
74908;SDS011;63468;52.058;4.824;2023-07-31T05:05:22;31.52;;;28.80;;
74908;SDS011;63468;52.058;4.824;2023-07-31T05:07:47;32.67;;;29.75;;
74908;SDS011;63468;52.058;4.824;2023-07-31T05:10:12;31.08;;;28.45;;
74908;SDS011;63468;52.058;4.824;2023-07-31T05:12:38;31.23;;;28.70;;
74908;SDS011;63468;52.058;4.824;2023-07-31T05:15:03;30.70;;;28.10;;
74908;SDS011;63468;52.058;4.824;2023-07-31T05:17:29;31.40;;;28.60;;
74908;SDS011;63468;52.058;4.824;2023-07-31T05:19:54;31.25;;;28.63;;
74908;SDS011;63468;52.058;4.824;2023-07-31T05:22:20;32.55;;;29.73;;
74908;SDS011;63468;52.058;4.824;2023-07-31T05:24:45;30.33;;;27.83;;
74908;SDS011;63468;52.058;4.824;2023-07-31T05:27:10;30.92;;;28.25;;
74908;SDS011;63468;52.058;4.824;2023-07-31T05:29:37;30.30;;;27.58;;
74908;SDS011;63468;52.058;4.824;2023-07-31T05:32:02;32.20;;;29.63;;
74908;SDS011;63468;52.058;4.824;2023-07-31T05:34:28;31.15;;;28.33;;
74908;SDS011;63468;52.058;4.824;2023-07-31T05:36:53;30.25;;;27.52;;
74908;SDS011;63468;52.058;4.824;2023-07-31T05:39:18;31.98;;;29.08;;
74908;SDS011;63468;52.058;4.824;2023-07-31T05:41:44;29.98;;;27.48;;
74908;SDS011;63468;52.058;4.824;2023-07-31T05:44:10;31.83;;;28.70;;
74908;SDS011;63468;52.058;4.824;2023-07-31T05:46:35;28.85;;;26.77;;
74908;SDS011;63468;52.058;4.824;2023-07-31T05:49:01;29.17;;;26.70;;
74908;SDS011;63468;52.058;4.824;2023-07-31T05:51:26;28.73;;;26.45;;
74908;SDS011;63468;52.058;4.824;2023-07-31T05:53:52;29.23;;;27.10;;
74908;SDS011;63468;52.058;4.824;2023-07-31T05:56:17;30.98;;;28.35;;
74908;SDS011;63468;52.058;4.824;2023-07-31T05:58:43;30.33;;;27.85;;
74908;SDS011;63468;52.058;4.824;2023-07-31T06:01:08;29.67;;;27.48;;
74908;SDS011;63468;52.058;4.824;2023-07-31T06:03:33;31.48;;;28.25;;
74908;SDS011;63468;52.058;4.824;2023-07-31T06:05:59;30.20;;;27.65;;
74908;SDS011;63468;52.058;4.824;2023-07-31T06:08:24;29.90;;;27.60;;
74908;SDS011;63468;52.058;4.824;2023-07-31T06:10:50;30.42;;;27.98;;
74908;SDS011;63468;52.058;4.824;2023-07-31T06:13:15;30.63;;;27.88;;
74908;SDS011;63468;52.058;4.824;2023-07-31T06:15:40;30.33;;;27.83;;
74908;SDS011;63468;52.058;4.824;2023-07-31T06:18:06;29.75;;;27.63;;
74908;SDS011;63468;52.058;4.824;2023-07-31T06:20:33;30.23;;;27.67;;
74908;SDS011;63468;52.058;4.824;2023-07-31T06:22:59;29.48;;;27.20;;
74908;SDS011;63468;52.058;4.824;2023-07-31T06:25:24;29.70;;;27.38;;
74908;SDS011;63468;52.058;4.824;2023-07-31T06:27:49;29.63;;;27.33;;
74908;SDS011;63468;52.058;4.824;2023-07-31T06:30:15;29.20;;;26.98;;
74908;SDS011;63468;52.058;4.824;2023-07-31T06:32:40;30.55;;;28.25;;
74908;SDS011;63468;52.058;4.824;2023-07-31T06:35:06;30.40;;;28.17;;
74908;SDS011;63468;52.058;4.824;2023-07-31T06:37:31;31.10;;;28.73;;
74908;SDS011;63468;52.058;4.824;2023-07-31T06:39:56;29.63;;;27.20;;
74908;SDS011;63468;52.058;4.824;2023-07-31T06:42:22;29.60;;;27.13;;
74908;SDS011;63468;52.058;4.824;2023-07-31T06:44:47;30.15;;;27.92;;
74908;SDS011;63468;52.058;4.824;2023-07-31T06:47:13;29.80;;;27.70;;
74908;SDS011;63468;52.058;4.824;2023-07-31T06:49:38;30.08;;;27.83;;
74908;SDS011;63468;52.058;4.824;2023-07-31T06:52:03;29.55;;;27.42;;
74908;SDS011;63468;52.058;4.824;2023-07-31T06:54:29;29.10;;;27.02;;
74908;SDS011;63468;52.058;4.824;2023-07-31T06:56:54;29.42;;;27.25;;
74908;SDS011;63468;52.058;4.824;2023-07-31T06:59:20;29.98;;;27.77;;
74908;SDS011;63468;52.058;4.824;2023-07-31T07:01:45;29.70;;;27.60;;
74908;SDS011;63468;52.058;4.824;2023-07-31T07:04:10;29.95;;;27.85;;
74908;SDS011;63468;52.058;4.824;2023-07-31T07:06:36;28.77;;;26.33;;
74908;SDS011;63468;52.058;4.824;2023-07-31T07:09:01;28.73;;;26.75;;
74908;SDS011;63468;52.058;4.824;2023-07-31T07:11:26;29.45;;;27.10;;
74908;SDS011;63468;52.058;4.824;2023-07-31T07:13:52;28.27;;;26.35;;
74908;SDS011;63468;52.058;4.824;2023-07-31T07:16:17;29.02;;;26.83;;
74908;SDS011;63468;52.058;4.824;2023-07-31T07:18:42;28.42;;;26.42;;
74908;SDS011;63468;52.058;4.824;2023-07-31T07:21:07;27.50;;;25.40;;
74908;SDS011;63468;52.058;4.824;2023-07-31T07:23:33;28.63;;;26.38;;
74908;SDS011;63468;52.058;4.824;2023-07-31T07:25:58;27.90;;;25.98;;
74908;SDS011;63468;52.058;4.824;2023-07-31T07:28:24;28.48;;;26.38;;
74908;SDS011;63468;52.058;4.824;2023-07-31T07:30:52;28.27;;;26.17;;
74908;SDS011;63468;52.058;4.824;2023-07-31T07:33:20;29.10;;;27.07;;
74908;SDS011;63468;52.058;4.824;2023-07-31T07:35:45;28.33;;;26.42;;
74908;SDS011;63468;52.058;4.824;2023-07-31T07:38:13;28.55;;;26.60;;
74908;SDS011;63468;52.058;4.824;2023-07-31T07:40:40;27.85;;;26.05;;
74908;SDS011;63468;52.058;4.824;2023-07-31T07:43:05;27.67;;;25.77;;
74908;SDS011;63468;52.058;4.824;2023-07-31T07:45:31;28.65;;;26.65;;
74908;SDS011;63468;52.058;4.824;2023-07-31T07:47:56;27.40;;;25.50;;
74908;SDS011;63468;52.058;4.824;2023-07-31T07:50:21;27.88;;;25.98;;
74908;SDS011;63468;52.058;4.824;2023-07-31T07:52:47;28.20;;;26.23;;
74908;SDS011;63468;52.058;4.824;2023-07-31T07:55:12;28.17;;;26.40;;
74908;SDS011;63468;52.058;4.824;2023-07-31T07:57:37;27.52;;;25.73;;
74908;SDS011;63468;52.058;4.824;2023-07-31T08:00:03;28.23;;;26.38;;
74908;SDS011;63468;52.058;4.824;2023-07-31T08:02:28;29.30;;;27.13;;
74908;SDS011;63468;52.058;4.824;2023-07-31T08:04:53;28.45;;;26.55;;
74908;SDS011;63468;52.058;4.824;2023-07-31T08:07:19;27.88;;;26.08;;
74908;SDS011;63468;52.058;4.824;2023-07-31T08:09:44;26.67;;;24.98;;
74908;SDS011;63468;52.058;4.824;2023-07-31T08:12:09;27.33;;;25.33;;
74908;SDS011;63468;52.058;4.824;2023-07-31T08:14:35;27.80;;;25.85;;
74908;SDS011;63468;52.058;4.824;2023-07-31T08:17:01;27.50;;;25.80;;
74908;SDS011;63468;52.058;4.824;2023-07-31T08:19:27;30.08;;;28.05;;
74908;SDS011;63468;52.058;4.824;2023-07-31T08:21:52;30.15;;;28.05;;
74908;SDS011;63468;52.058;4.824;2023-07-31T08:24:18;27.95;;;26.00;;
74908;SDS011;63468;52.058;4.824;2023-07-31T08:26:43;27.35;;;25.65;;
74908;SDS011;63468;52.058;4.824;2023-07-31T08:29:08;27.73;;;25.92;;
74908;SDS011;63468;52.058;4.824;2023-07-31T08:31:34;26.23;;;24.52;;
74908;SDS011;63468;52.058;4.824;2023-07-31T08:33:59;26.13;;;24.42;;
74908;SDS011;63468;52.058;4.824;2023-07-31T08:36:25;26.60;;;24.90;;
74908;SDS011;63468;52.058;4.824;2023-07-31T08:38:50;26.08;;;24.38;;
74908;SDS011;63468;52.058;4.824;2023-07-31T08:41:16;25.75;;;24.05;;
74908;SDS011;63468;52.058;4.824;2023-07-31T08:43:47;26.63;;;24.85;;
74908;SDS011;63468;52.058;4.824;2023-07-31T08:46:12;26.17;;;24.48;;
74908;SDS011;63468;52.058;4.824;2023-07-31T08:48:39;26.83;;;25.13;;
74908;SDS011;63468;52.058;4.824;2023-07-31T08:51:06;26.75;;;25.15;;
74908;SDS011;63468;52.058;4.824;2023-07-31T08:53:32;26.63;;;25.02;;
74908;SDS011;63468;52.058;4.824;2023-07-31T08:55:57;26.55;;;24.95;;
74908;SDS011;63468;52.058;4.824;2023-07-31T08:58:23;26.27;;;24.58;;
74908;SDS011;63468;52.058;4.824;2023-07-31T09:00:49;27.40;;;25.63;;
74908;SDS011;63468;52.058;4.824;2023-07-31T09:03:17;26.67;;;24.98;;
74908;SDS011;63468;52.058;4.824;2023-07-31T09:05:43;24.85;;;23.35;;
74908;SDS011;63468;52.058;4.824;2023-07-31T09:08:11;26.38;;;24.75;;
74908;SDS011;63468;52.058;4.824;2023-07-31T09:10:41;26.80;;;25.10;;
74908;SDS011;63468;52.058;4.824;2023-07-31T09:13:11;26.65;;;24.92;;
74908;SDS011;63468;52.058;4.824;2023-07-31T09:15:39;26.00;;;24.30;;
74908;SDS011;63468;52.058;4.824;2023-07-31T09:18:06;27.45;;;25.55;;
74908;SDS011;63468;52.058;4.824;2023-07-31T09:20:32;26.73;;;25.02;;
74908;SDS011;63468;52.058;4.824;2023-07-31T09:23:04;26.40;;;24.70;;
74908;SDS011;63468;52.058;4.824;2023-07-31T09:25:38;25.77;;;24.17;;
74908;SDS011;63468;52.058;4.824;2023-07-31T09:28:05;26.52;;;24.73;;
74908;SDS011;63468;52.058;4.824;2023-07-31T09:30:43;26.92;;;25.13;;
74908;SDS011;63468;52.058;4.824;2023-07-31T09:33:13;26.38;;;24.67;;
74908;SDS011;63468;52.058;4.824;2023-07-31T09:35:38;27.10;;;25.30;;
74908;SDS011;63468;52.058;4.824;2023-07-31T09:38:06;27.45;;;25.65;;
74908;SDS011;63468;52.058;4.824;2023-07-31T09:43:08;27.67;;;25.83;;
74908;SDS011;63468;52.058;4.824;2023-07-31T09:45:36;28.77;;;26.88;;
74908;SDS011;63468;52.058;4.824;2023-07-31T09:48:08;28.70;;;26.70;;
74908;SDS011;63468;52.058;4.824;2023-07-31T09:50:36;29.15;;;27.15;;
74908;SDS011;63468;52.058;4.824;2023-07-31T09:53:05;28.20;;;26.40;;
74908;SDS011;63468;52.058;4.824;2023-07-31T09:55:31;28.75;;;26.85;;
74908;SDS011;63468;52.058;4.824;2023-07-31T09:57:57;28.65;;;26.75;;
74908;SDS011;63468;52.058;4.824;2023-07-31T10:00:22;28.45;;;26.65;;
74908;SDS011;63468;52.058;4.824;2023-07-31T10:02:50;29.02;;;27.13;;
74908;SDS011;63468;52.058;4.824;2023-07-31T10:05:15;29.88;;;27.67;;
74908;SDS011;63468;52.058;4.824;2023-07-31T10:07:42;30.60;;;28.60;;
74908;SDS011;63468;52.058;4.824;2023-07-31T10:10:11;30.33;;;28.25;;
74908;SDS011;63468;52.058;4.824;2023-07-31T10:12:36;30.10;;;28.10;;
74908;SDS011;63468;52.058;4.824;2023-07-31T10:15:03;29.42;;;27.55;;
74908;SDS011;63468;52.058;4.824;2023-07-31T10:17:29;29.65;;;27.75;;
74908;SDS011;63468;52.058;4.824;2023-07-31T10:19:55;28.88;;;26.98;;
74908;SDS011;63468;52.058;4.824;2023-07-31T10:22:22;30.30;;;28.30;;
74908;SDS011;63468;52.058;4.824;2023-07-31T10:24:48;30.48;;;28.48;;
74908;SDS011;63468;52.058;4.824;2023-07-31T10:27:14;31.20;;;29.10;;
74908;SDS011;63468;52.058;4.824;2023-07-31T10:29:41;30.77;;;28.73;;
74908;SDS011;63468;52.058;4.824;2023-07-31T10:32:08;29.15;;;27.25;;
74908;SDS011;63468;52.058;4.824;2023-07-31T10:34:38;30.35;;;28.25;;
74908;SDS011;63468;52.058;4.824;2023-07-31T10:39:57;25.88;;;24.25;;
74908;SDS011;63468;52.058;4.824;2023-07-31T10:42:27;27.52;;;25.83;;
74908;SDS011;63468;52.058;4.824;2023-07-31T10:45:01;28.77;;;26.52;;
74908;SDS011;63468;52.058;4.824;2023-07-31T10:47:28;27.35;;;25.52;;
74908;SDS011;63468;52.058;4.824;2023-07-31T10:50:10;27.08;;;25.30;;
74908;SDS011;63468;52.058;4.824;2023-07-31T10:52:46;28.85;;;26.95;;
74908;SDS011;63468;52.058;4.824;2023-07-31T10:58:04;28.38;;;25.98;;
74908;SDS011;63468;52.058;4.824;2023-07-31T11:00:30;27.80;;;25.88;;
74908;SDS011;63468;52.058;4.824;2023-07-31T11:03:03;27.15;;;25.38;;
74908;SDS011;63468;52.058;4.824;2023-07-31T11:08:26;27.52;;;25.73;;
74908;SDS011;63468;52.058;4.824;2023-07-31T11:13:30;28.10;;;25.98;;
74908;SDS011;63468;52.058;4.824;2023-07-31T11:15:59;28.83;;;26.58;;
74908;SDS011;63468;52.058;4.824;2023-07-31T11:18:26;28.85;;;26.58;;
74908;SDS011;63468;52.058;4.824;2023-07-31T11:20:51;29.67;;;27.50;;
74908;SDS011;63468;52.058;4.824;2023-07-31T11:23:17;28.90;;;26.80;;
74908;SDS011;63468;52.058;4.824;2023-07-31T11:25:43;29.35;;;27.13;;
74908;SDS011;63468;52.058;4.824;2023-07-31T11:28:09;28.70;;;26.30;;
74908;SDS011;63468;52.058;4.824;2023-07-31T11:30:36;29.95;;;27.95;;
74908;SDS011;63468;52.058;4.824;2023-07-31T11:33:02;29.65;;;27.45;;
74908;SDS011;63468;52.058;4.824;2023-07-31T11:35:29;29.92;;;27.70;;
74908;SDS011;63468;52.058;4.824;2023-07-31T11:37:57;28.42;;;26.42;;
74908;SDS011;63468;52.058;4.824;2023-07-31T11:40:23;29.33;;;27.30;;
74908;SDS011;63468;52.058;4.824;2023-07-31T11:42:54;30.50;;;28.27;;
74908;SDS011;63468;52.058;4.824;2023-07-31T11:45:24;31.13;;;28.92;;
74908;SDS011;63468;52.058;4.824;2023-07-31T11:47:51;29.52;;;27.42;;
74908;SDS011;63468;52.058;4.824;2023-07-31T11:50:17;29.70;;;27.50;;
74908;SDS011;63468;52.058;4.824;2023-07-31T11:52:43;29.50;;;27.30;;
74908;SDS011;63468;52.058;4.824;2023-07-31T11:55:09;30.13;;;28.13;;
74908;SDS011;63468;52.058;4.824;2023-07-31T11:57:36;31.55;;;29.23;;
74908;SDS011;63468;52.058;4.824;2023-07-31T12:00:03;30.27;;;28.00;;
74908;SDS011;63468;52.058;4.824;2023-07-31T12:02:29;30.25;;;28.05;;
74908;SDS011;63468;52.058;4.824;2023-07-31T12:04:54;31.42;;;29.02;;
74908;SDS011;63468;52.058;4.824;2023-07-31T12:07:20;31.85;;;29.35;;
74908;SDS011;63468;52.058;4.824;2023-07-31T12:09:54;33.10;;;30.02;;
74908;SDS011;63468;52.058;4.824;2023-07-31T12:12:20;32.33;;;29.88;;
74908;SDS011;63468;52.058;4.824;2023-07-31T12:14:47;32.17;;;29.77;;
74908;SDS011;63468;52.058;4.824;2023-07-31T12:17:12;30.05;;;28.05;;
74908;SDS011;63468;52.058;4.824;2023-07-31T12:19:38;27.25;;;25.45;;
74908;SDS011;63468;52.058;4.824;2023-07-31T12:22:10;30.02;;;27.90;;
74908;SDS011;63468;52.058;4.824;2023-07-31T12:24:37;28.10;;;25.95;;
74908;SDS011;63468;52.058;4.824;2023-07-31T12:27:14;27.25;;;25.35;;
74908;SDS011;63468;52.058;4.824;2023-07-31T12:29:41;27.98;;;25.70;;
74908;SDS011;63468;52.058;4.824;2023-07-31T12:32:19;29.38;;;27.15;;
74908;SDS011;63468;52.058;4.824;2023-07-31T12:34:48;29.20;;;27.02;;
74908;SDS011;63468;52.058;4.824;2023-07-31T12:37:14;29.30;;;27.13;;
74908;SDS011;63468;52.058;4.824;2023-07-31T12:39:39;28.15;;;26.05;;
74908;SDS011;63468;52.058;4.824;2023-07-31T12:42:05;27.90;;;25.70;;
74908;SDS011;63468;52.058;4.824;2023-07-31T12:44:31;28.17;;;25.90;;
74908;SDS011;63468;52.058;4.824;2023-07-31T12:46:56;25.58;;;23.90;;
74908;SDS011;63468;52.058;4.824;2023-07-31T12:49:22;24.60;;;23.00;;
74908;SDS011;63468;52.058;4.824;2023-07-31T12:51:47;24.90;;;23.00;;
74908;SDS011;63468;52.058;4.824;2023-07-31T12:54:12;26.67;;;24.48;;
74908;SDS011;63468;52.058;4.824;2023-07-31T12:56:38;25.70;;;23.90;;
74908;SDS011;63468;52.058;4.824;2023-07-31T12:59:03;27.73;;;25.73;;
74908;SDS011;63468;52.058;4.824;2023-07-31T13:01:28;26.65;;;24.83;;
74908;SDS011;63468;52.058;4.824;2023-07-31T13:03:54;25.27;;;23.67;;
74908;SDS011;63468;52.058;4.824;2023-07-31T13:06:19;25.02;;;23.42;;
74908;SDS011;63468;52.058;4.824;2023-07-31T13:08:44;23.98;;;22.27;;
74908;SDS011;63468;52.058;4.824;2023-07-31T13:11:10;23.83;;;22.17;;
74908;SDS011;63468;52.058;4.824;2023-07-31T13:13:35;23.83;;;22.27;;
74908;SDS011;63468;52.058;4.824;2023-07-31T13:16:00;21.42;;;19.98;;
74908;SDS011;63468;52.058;4.824;2023-07-31T13:18:25;23.25;;;21.50;;
74908;SDS011;63468;52.058;4.824;2023-07-31T13:20:51;23.83;;;22.33;;
74908;SDS011;63468;52.058;4.824;2023-07-31T13:23:16;25.25;;;23.65;;
74908;SDS011;63468;52.058;4.824;2023-07-31T13:25:41;25.80;;;24.17;;
74908;SDS011;63468;52.058;4.824;2023-07-31T13:28:07;25.48;;;23.80;;
74908;SDS011;63468;52.058;4.824;2023-07-31T13:30:32;26.55;;;24.88;;
74908;SDS011;63468;52.058;4.824;2023-07-31T13:32:58;27.48;;;25.67;;
74908;SDS011;63468;52.058;4.824;2023-07-31T13:35:23;28.48;;;26.55;;
74908;SDS011;63468;52.058;4.824;2023-07-31T13:37:48;25.20;;;23.65;;
74908;SDS011;63468;52.058;4.824;2023-07-31T13:40:14;25.08;;;23.48;;
74908;SDS011;63468;52.058;4.824;2023-07-31T13:42:39;25.10;;;23.50;;
74908;SDS011;63468;52.058;4.824;2023-07-31T13:45:04;25.38;;;23.77;;
74908;SDS011;63468;52.058;4.824;2023-07-31T13:47:30;25.20;;;23.60;;
74908;SDS011;63468;52.058;4.824;2023-07-31T13:49:56;25.30;;;23.80;;
74908;SDS011;63468;52.058;4.824;2023-07-31T13:52:21;26.10;;;24.40;;
74908;SDS011;63468;52.058;4.824;2023-07-31T13:54:46;26.35;;;24.45;;
74908;SDS011;63468;52.058;4.824;2023-07-31T13:57:12;26.83;;;25.10;;
74908;SDS011;63468;52.058;4.824;2023-07-31T13:59:37;27.48;;;25.77;;
74908;SDS011;63468;52.058;4.824;2023-07-31T14:02:02;28.35;;;26.65;;
74908;SDS011;63468;52.058;4.824;2023-07-31T14:04:28;26.48;;;24.67;;
74908;SDS011;63468;52.058;4.824;2023-07-31T14:06:54;26.08;;;24.48;;
74908;SDS011;63468;52.058;4.824;2023-07-31T14:09:20;27.35;;;25.65;;
74908;SDS011;63468;52.058;4.824;2023-07-31T14:11:46;26.77;;;25.17;;
74908;SDS011;63468;52.058;4.824;2023-07-31T14:14:11;27.35;;;25.75;;
74908;SDS011;63468;52.058;4.824;2023-07-31T14:16:37;27.23;;;25.63;;
74908;SDS011;63468;52.058;4.824;2023-07-31T14:19:02;26.77;;;25.08;;
74908;SDS011;63468;52.058;4.824;2023-07-31T14:21:28;26.67;;;24.83;;
74908;SDS011;63468;52.058;4.824;2023-07-31T14:23:53;26.40;;;24.52;;
74908;SDS011;63468;52.058;4.824;2023-07-31T14:26:18;27.02;;;25.27;;
74908;SDS011;63468;52.058;4.824;2023-07-31T14:28:44;27.05;;;25.35;;
74908;SDS011;63468;52.058;4.824;2023-07-31T14:31:09;27.77;;;25.98;;
74908;SDS011;63468;52.058;4.824;2023-07-31T14:33:34;27.38;;;25.58;;
74908;SDS011;63468;52.058;4.824;2023-07-31T14:36:00;27.13;;;25.50;;
74908;SDS011;63468;52.058;4.824;2023-07-31T14:38:25;26.08;;;24.50;;
74908;SDS011;63468;52.058;4.824;2023-07-31T14:40:51;27.35;;;25.63;;